Sherwood, Maryland
Current Conditions -  °F | °C
As of 8:50 AM on Wednesday 22 Oct 2014 (Local Time) from KESN Reporting Station
Light Rain Light Rain  
Wind Chill: 55°   Ceiling: 800
Heat Index: 55°   Visibility: 5mi
Dew Point: 55°   Wind: 10mph
Humidity: 100%   Direction: 20°NNE
Pressure: 29.89"   Gusts: NA
Location:  38.76°N, 76.32°W
Report Text: KESN 221250Z 02009KT 5SM -RA BR BKN008 OVC013 13/13 A2989
Loading
Personal Weather Stations






























Interactive Weather Map
Tropical Storm Tracking
New forecast layout! Learn more

10-Day Weather Forecast

Advertisements
Track Severe Weather on mobile